Time;durP1;ratioP1;P1;durP2;ratioP2;P2;SDS_P1;SDS_P2;PMS_P1;PMS_P2;Temp;Humidity;BMP_temperature;BMP_pressure;BME280_temperature;BME280_humidity;BME280_pressure;Samples;Min_cycle;Max_cycle;Signal;HPM_P1;HPM_P2
2022/07/27 00:02:05;;;;;;;9.90;5.95;;;;;;;14.11;74.24;97082.11;1830387;78;27199;-75
2022/07/27 00:04:32;;;;;;;6.35;5.30;;;;;;;14.10;74.18;97081.81;1830376;78;25673;-77
2022/07/27 00:06:58;;;;;;;6.55;5.60;;;;;;;14.07;74.12;97084.47;1830533;78;25701;-76
2022/07/27 00:09:25;;;;;;;9.78;6.00;;;;;;;14.05;74.07;97084.70;1830448;78;25974;-76
2022/07/27 00:11:51;;;;;;;6.55;5.80;;;;;;;13.98;74.03;97076.42;1830350;77;25816;-76
2022/07/27 00:14:18;;;;;;;7.28;5.05;;;;;;;13.88;74.03;97081.12;1830139;78;27342;-76
2022/07/27 00:16:44;;;;;;;7.33;4.95;;;;;;;13.86;74.23;97077.81;1830289;78;25668;-76
2022/07/27 00:19:11;;;;;;;7.42;5.15;;;;;;;13.85;74.17;97073.45;1830313;76;25641;-75
2022/07/27 00:21:37;;;;;;;6.03;5.03;;;;;;;13.82;74.17;97069.85;1830429;78;25962;-75
2022/07/27 00:24:04;;;;;;;6.10;5.37;;;;;;;13.78;74.22;97070.03;1830517;78;25804;-76
2022/07/27 00:26:31;;;;;;;6.03;5.17;;;;;;;13.77;74.29;97069.73;1830491;78;27328;-77
2022/07/27 00:28:58;;;;;;;10.20;5.42;;;;;;;13.77;74.28;97067.02;1830365;78;26375;-76
2022/07/27 00:31:24;;;;;;;8.15;6.30;;;;;;;13.77;74.28;97076.52;1830450;78;25713;-75
2022/07/27 00:33:51;;;;;;;9.83;6.42;;;;;;;13.74;74.36;97072.95;1830483;78;26188;-75
2022/07/27 00:36:18;;;;;;;7.25;5.70;;;;;;;13.70;74.37;97079.38;1830408;78;25951;-76
2022/07/27 00:38:44;;;;;;;7.87;6.15;;;;;;;13.69;74.36;97080.44;1830444;78;27357;-76
2022/07/27 00:41:11;;;;;;;9.33;7.05;;;;;;;13.69;74.40;97083.67;1830179;78;25662;-76
2022/07/27 00:43:58;;;;;;;8.48;6.25;;;;;;;13.68;74.31;97080.14;1830443;78;25693;-75
2022/07/27 00:46:27;;;;;;;5.80;5.00;;;;;;;13.69;74.27;97086.39;1830492;78;26070;-75
2022/07/27 00:48:53;;;;;;;9.45;5.25;;;;;;;13.65;74.19;97082.50;1861816;77;25669;-76
2022/07/27 00:51:22;;;;;;;8.80;5.45;;;;;;;13.60;74.14;97081.87;1863425;77;27986;-76
2022/07/27 00:53:50;;;;;;;8.60;5.75;;;;;;;13.59;74.10;97084.29;1863328;77;26045;-75
2022/07/27 00:56:17;;;;;;;8.65;6.10;;;;;;;13.57;74.07;97080.98;1863410;77;25679;-76
2022/07/27 00:58:48;;;;;;;6.53;5.62;;;;;;;13.55;74.12;97085.81;1863490;77;26025;-76
2022/07/27 01:01:17;;;;;;;7.20;5.83;;;;;;;13.56;74.07;97086.64;1859413;77;25615;-75
2022/07/27 01:03:45;;;;;;;10.43;6.30;;;;;;;13.53;74.07;97088.47;1863351;77;28273;-76
2022/07/27 01:06:12;;;;;;;10.88;7.58;;;;;;;13.48;74.12;97095.16;1863315;77;25696;-75
2022/07/27 01:08:41;;;;;;;9.15;6.67;;;;;;;13.41;74.27;97089.01;1863469;77;25735;-75
2022/07/27 01:11:08;;;;;;;9.25;7.35;;;;;;;13.38;74.43;97089.50;1863568;77;26655;-76
2022/07/27 01:13:35;;;;;;;8.55;6.47;;;;;;;13.34;74.45;97087.26;1863170;77;25691;-75
2022/07/27 01:16:05;;;;;;;7.53;6.50;;;;;;;13.33;74.53;97089.67;1863325;77;28362;-75
2022/07/27 01:18:36;;;;;;;8.05;6.33;;;;;;;13.33;74.58;97095.63;1863367;77;25687;-76
2022/07/27 01:21:08;;;;;;;7.53;6.50;;;;;;;13.32;74.53;97098.86;1863554;77;25647;-75
2022/07/27 01:23:35;;;;;;;7.65;6.62;;;;;;;13.25;74.44;97098.17;1863648;77;25984;-76
2022/07/27 01:26:02;;;;;;;9.10;6.50;;;;;;;13.21;74.61;97092.91;1863566;77;25644;-75
2022/07/27 01:28:29;;;;;;;7.92;6.70;;;;;;;13.20;74.67;97094.50;1863123;77;27420;-76
2022/07/27 01:30:55;;;;;;;9.88;6.80;;;;;;;13.17;74.71;97089.02;1863203;77;25706;-75
2022/07/27 01:33:24;;;;;;;10.28;6.47;;;;;;;13.15;74.74;97084.39;1863373;77;25234;-76
2022/07/27 01:35:56;;;;;;;10.00;6.92;;;;;;;13.14;74.78;97086.80;1863608;77;26163;-76
2022/07/27 01:38:23;;;;;;;8.35;6.55;;;;;;;13.14;74.78;97090.00;1863550;77;25680;-76
2022/07/27 01:40:51;;;;;;;10.50;6.58;;;;;;;13.10;74.84;97089.64;1863399;77;27353;-76
2022/07/27 01:43:18;;;;;;;9.10;6.42;;;;;;;13.07;74.82;97087.39;1863221;77;25708;-76
2022/07/27 01:45:45;;;;;;;7.95;5.65;;;;;;;13.07;74.82;97087.39;1863295;77;25708;-77
2022/07/27 01:48:11;;;;;;;6.67;5.70;;;;;;;13.07;74.79;97083.33;1856426;77;26027;-76
2022/07/27 01:50:39;;;;;;;8.33;5.55;;;;;;;13.08;74.82;97082.80;1850809;77;25478;-76
2022/07/27 01:53:06;;;;;;;6.58;5.40;;;;;;;13.07;74.73;97081.97;1850732;77;27390;-76
2022/07/27 01:55:32;;;;;;;7.37;5.10;;;;;;;13.07;74.71;97080.62;1850689;76;26020;-77
2022/07/27 01:57:59;;;;;;;8.63;5.47;;;;;;;13.05;74.62;97080.02;1850321;76;25703;-76
2022/07/27 02:00:25;;;;;;;10.08;6.30;;;;;;;13.03;74.62;97071.86;1850731;76;26023;-76
2022/07/27 02:02:52;;;;;;;7.50;6.15;;;;;;;13.01;74.61;97066.67;1850915;77;25167;-77
2022/07/27 02:05:18;;;;;;;8.28;6.17;;;;;;;12.99;74.74;97064.72;1850790;77;27929;-76
2022/07/27 02:07:45;;;;;;;9.20;6.53;;;;;;;12.98;74.81;97065.78;1850702;77;25813;-77
2022/07/27 02:10:12;;;;;;;11.40;6.55;;;;;;;12.94;74.88;97064.58;1850428;77;25779;-78
2022/07/27 02:12:38;;;;;;;8.73;6.25;;;;;;;12.94;74.99;97064.58;1850688;76;26185;-76
2022/07/27 02:17:48;;;;;;;9.98;6.60;;;;;;;12.94;75.09;97070.83;1734553;82;27381;-76
2022/07/27 02:20:20;;;;;;;9.05;6.47;;;;;;;12.95;75.13;97066.23;1734528;82;26054;-76
2022/07/27 02:22:46;;;;;;;10.63;6.35;;;;;;;12.96;75.08;97068.72;1734614;82;25889;-76
2022/07/27 02:25:15;;;;;;;10.20;5.75;;;;;;;12.96;75.09;97069.24;1734340;82;26187;-77
2022/07/27 02:27:42;;;;;;;8.38;5.53;;;;;;;12.91;75.07;97071.32;1734550;82;25551;-75
2022/07/27 02:30:12;;;;;;;6.15;5.37;;;;;;;12.92;75.05;97072.15;1734501;82;27372;-77
2022/07/27 02:32:41;;;;;;;8.35;6.28;;;;;;;12.90;75.02;97078.33;1734443;82;25924;-76
2022/07/27 02:35:08;;;;;;;5.35;4.85;;;;;;;12.88;74.96;97073.66;1734585;82;25777;-77
2022/07/27 02:37:35;;;;;;;5.72;5.10;;;;;;;12.84;74.95;97084.13;1734441;82;25850;-75
2022/07/27 02:40:01;;;;;;;10.35;5.87;;;;;;;12.83;74.94;97085.72;1734634;82;25869;-75
2022/07/27 02:42:28;;;;;;;5.87;5.30;;;;;;;12.81;74.90;97086.47;1734616;82;27984;-76
2022/07/27 02:44:54;;;;;;;6.55;5.42;;;;;;;12.80;74.89;97082.14;1734323;82;25734;-75
2022/07/27 02:47:21;;;;;;;6.37;5.75;;;;;;;12.78;74.84;97092.38;1733944;82;25834;-76
2022/07/27 02:49:48;;;;;;;5.83;5.00;;;;;;;12.77;74.79;97090.72;1728976;82;26076;-75
2022/07/27 02:52:14;;;;;;;5.22;4.70;;;;;;;12.76;74.78;97100.73;1729235;82;25709;-77
2022/07/27 02:54:41;;;;;;;8.38;5.25;;;;;;;12.74;74.76;97102.02;1729349;82;27549;-76
2022/07/27 02:57:08;;;;;;;5.60;4.45;;;;;;;12.71;74.76;97101.12;1729026;82;26106;-75
2022/07/27 02:59:34;;;;;;;8.18;4.62;;;;;;;12.70;74.73;97104.87;1729321;82;25402;-74
2022/07/27 03:02:01;;;;;;;7.53;5.00;;;;;;;12.67;74.73;97101.30;1729312;82;25984;-77
2022/07/27 03:04:27;;;;;;;8.58;4.75;;;;;;;12.63;74.75;97103.11;1729389;82;25805;-75
2022/07/27 03:06:54;;;;;;;5.92;4.78;;;;;;;12.62;74.71;97098.75;1729087;82;28082;-75
2022/07/27 03:09:21;;;;;;;7.03;4.75;;;;;;;12.62;74.69;97106.88;1729076;82;25839;-75
2022/07/27 03:11:47;;;;;;;12.28;5.87;;;;;;;12.59;74.67;97102.44;1729338;82;25792;-75
2022/07/27 03:14:14;;;;;;;12.13;5.97;;;;;;;12.57;74.77;97101.31;1746055;81;26049;-77
2022/07/27 03:16:40;;;;;;;8.98;6.10;;;;;;;12.55;74.97;97104.81;1759661;81;25741;-76
2022/07/27 03:19:07;;;;;;;6.67;5.62;;;;;;;12.52;75.04;97105.27;1759557;81;27462;-75
2022/07/27 03:21:33;;;;;;;6.70;5.05;;;;;;;12.48;75.15;97108.65;1817591;77;25486;-76
2022/07/27 03:24:00;;;;;;;7.97;5.75;;;;;;;12.48;75.23;97113.53;1844856;77;25226;-75
2022/07/27 03:26:29;;;;;;;7.10;6.37;;;;;;;12.48;75.28;97122.19;1844668;77;26096;-75
2022/07/27 03:28:56;;;;;;;14.75;6.65;;;;;;;12.49;75.33;97121.95;1844760;77;25672;-77
2022/07/27 03:31:22;;;;;;;11.40;7.15;;;;;;;12.49;75.34;97111.13;1844688;77;27301;-78
2022/07/27 03:33:49;;;;;;;14.63;7.85;;;;;;;12.49;75.40;97107.07;1844656;77;25645;-80
2022/07/27 03:36:16;;;;;;;11.97;6.00;;;;;;;12.49;75.45;97109.78;1844822;77;25174;-77
2022/07/27 03:38:42;;;;;;;7.40;5.62;;;;;;;12.50;75.54;97111.95;1844678;77;26120;-77
2022/07/27 03:41:09;;;;;;;7.95;6.08;;;;;;;12.49;75.61;97104.36;1844837;76;26289;-79
2022/07/27 03:43:35;;;;;;;9.63;5.45;;;;;;;12.50;75.65;97107.38;1844770;77;28100;-77
2022/07/27 03:46:03;;;;;;;7.95;6.12;;;;;;;12.51;75.66;97109.02;1844444;77;43013;-78
2022/07/27 03:48:29;;;;;;;10.40;6.62;;;;;;;12.53;75.75;97115.04;1847150;77;25659;-81
2022/07/27 03:50:56;;;;;;;8.68;7.12;;;;;;;12.52;75.81;97109.33;1850460;77;26767;-77
2022/07/27 03:53:22;;;;;;;10.20;6.90;;;;;;;12.50;75.84;97098.42;1850652;77;25852;-79
2022/07/27 03:55:50;;;;;;;7.50;6.35;;;;;;;12.49;75.91;97104.36;1850608;77;28232;-77
2022/07/27 03:58:17;;;;;;;8.13;6.58;;;;;;;12.50;75.97;97110.61;1850243;77;25452;-77
2022/07/27 04:00:44;;;;;;;9.70;6.28;;;;;;;12.50;76.04;97106.55;1850719;77;25724;-78
2022/07/27 04:03:11;;;;;;;11.43;6.70;;;;;;;12.51;76.03;97114.44;1850578;76;26813;-77
2022/07/27 04:05:38;;;;;;;9.18;6.30;;;;;;;12.53;76.03;97115.04;1850392;77;25712;-78
2022/07/27 04:08:05;;;;;;;7.92;6.15;;;;;;;12.53;76.08;97117.75;1850421;77;27419;-77
2022/07/27 04:10:31;;;;;;;8.28;6.25;;;;;;;12.53;76.10;97106.91;1850560;77;25217;-79
2022/07/27 04:12:58;;;;;;;11.95;6.28;;;;;;;12.57;76.11;97110.80;1850812;76;26384;-77
2022/07/27 04:15:24;;;;;;;7.08;6.45;;;;;;;12.58;76.11;97111.63;1850556;77;25664;-79
2022/07/27 04:17:51;;;;;;;9.13;5.78;;;;;;;12.58;76.17;97116.51;1850755;77;25288;-77
2022/07/27 04:20:18;;;;;;;8.33;6.22;;;;;;;12.60;76.20;97117.11;1850931;77;27487;-77
2022/07/27 04:22:46;;;;;;;8.00;6.78;;;;;;;12.63;76.21;97118.01;1850694;77;25803;-77
2022/07/27 04:25:12;;;;;;;10.08;7.92;;;;;;;12.66;76.25;97110.48;1850726;77;25657;-77
2022/07/27 04:27:39;;;;;;;9.03;6.28;;;;;;;12.67;76.24;97114.84;1850759;77;25931;-77
2022/07/27 04:30:07;;;;;;;6.25;5.65;;;;;;;12.69;76.30;97122.19;1850869;76;25430;-77
2022/07/27 04:32:34;;;;;;;6.58;5.47;;;;;;;12.71;76.33;97120.91;1850672;76;27337;-77
2022/07/27 04:35:01;;;;;;;6.62;5.22;;;;;;;12.74;76.36;97116.91;1850651;77;25400;-76
2022/07/27 04:37:27;;;;;;;6.08;5.47;;;;;;;12.79;76.36;97122.47;1850844;77;25748;-78
2022/07/27 04:39:57;;;;;;;5.37;4.78;;;;;;;12.82;76.41;97124.16;1851060;77;26640;-76
2022/07/27 04:42:24;;;;;;;8.13;4.95;;;;;;;12.83;76.41;97121.75;1850925;77;25857;-76
2022/07/27 04:44:51;;;;;;;7.47;5.33;;;;;;;12.88;76.42;97117.01;1850479;77;27473;-76
2022/07/27 04:47:18;;;;;;;7.67;5.67;;;;;;;12.92;76.44;97120.34;1850762;76;25436;-76
2022/07/27 04:49:44;;;;;;;5.12;4.72;;;;;;;12.97;76.45;97119.66;1845583;77;25672;-76
2022/07/27 04:52:16;;;;;;;4.95;4.55;;;;;;;13.01;76.47;97110.55;1844783;77;26089;-75
2022/07/27 04:54:43;;;;;;;4.83;4.42;;;;;;;13.05;76.49;97115.25;1844945;77;25838;-76
2022/07/27 04:57:09;;;;;;;5.53;4.78;;;;;;;13.05;76.45;97114.42;1844531;77;28183;-75
2022/07/27 04:59:36;;;;;;;4.75;4.35;;;;;;;13.08;76.44;97108.02;1844639;77;25870;-77
2022/07/27 05:02:03;;;;;;;6.72;5.12;;;;;;;13.11;76.46;97108.91;1844762;77;25697;-76
2022/07/27 05:04:30;;;;;;;6.85;5.28;;;;;;;13.14;76.53;97110.33;1844999;77;26623;-75
2022/07/27 05:06:57;;;;;;;10.05;5.60;;;;;;;13.15;76.62;97111.48;1844846;77;26622;-75
2022/07/27 05:09:23;;;;;;;5.55;4.85;;;;;;;13.19;76.68;97121.30;1844813;77;27499;-76
2022/07/27 05:11:50;;;;;;;7.15;5.10;;;;;;;13.24;76.71;97120.08;1844774;77;25638;-75
2022/07/27 05:14:16;;;;;;;7.08;6.20;;;;;;;13.27;76.86;97119.09;1844663;77;25221;-76
2022/07/27 05:16:43;;;;;;;9.60;6.30;;;;;;;13.34;76.85;97112.19;1844794;77;25975;-76
2022/07/27 05:19:11;;;;;;;9.08;6.25;;;;;;;13.38;76.91;97115.26;1844892;77;25597;-77
2022/07/27 05:21:38;;;;;;;8.60;7.20;;;;;;;13.44;76.95;97118.37;1844769;77;27381;-76
2022/07/27 05:24:05;;;;;;;11.50;7.40;;;;;;;13.50;76.92;97113.37;1844787;77;25708;-77
2022/07/27 05:26:31;;;;;;;9.10;6.33;;;;;;;13.55;76.92;97112.11;1844729;77;25697;-77
2022/07/27 05:28:57;;;;;;;8.98;7.30;;;;;;;13.60;76.86;97113.06;1844769;77;26127;-77
2022/07/27 05:31:24;;;;;;;10.55;7.42;;;;;;;13.66;76.74;97113.98;1844925;77;25661;-77
2022/07/27 05:33:51;;;;;;;7.58;6.83;;;;;;;13.70;76.85;97112.45;1844824;77;27356;-77
2022/07/27 05:36:17;;;;;;;9.95;7.10;;;;;;;13.75;76.92;97113.11;1844707;77;25645;-78
2022/07/27 05:38:44;;;;;;;8.63;7.53;;;;;;;13.80;76.89;97115.38;1844974;77;25736;-76
2022/07/27 05:41:10;;;;;;;10.75;7.87;;;;;;;13.87;76.90;97118.80;1844729;76;26061;-78
2022/07/27 05:43:37;;;;;;;9.90;8.40;;;;;;;13.93;76.94;97123.27;1844833;77;25696;-76
2022/07/27 05:46:03;;;;;;;10.85;7.83;;;;;;;13.99;77.10;97130.98;1844880;77;27488;-77
2022/07/27 05:48:30;;;;;;;8.65;7.70;;;;;;;14.05;77.15;97134.91;1844551;77;25640;-77
2022/07/27 05:50:57;;;;;;;12.00;7.95;;;;;;;14.12;77.14;97129.90;1844763;77;25670;-77
2022/07/27 05:53:24;;;;;;;8.83;7.25;;;;;;;14.18;77.19;97125.67;1844335;77;26037;-77
2022/07/27 05:55:51;;;;;;;8.68;7.40;;;;;;;14.24;77.29;97126.61;1844538;77;25644;-79
2022/07/27 05:58:17;;;;;;;9.83;7.80;;;;;;;14.28;77.68;97127.76;1844678;77;27642;-77
2022/07/27 06:00:44;;;;;;;9.13;7.95;;;;;;;14.32;77.68;97131.66;1844641;77;25665;-77
2022/07/27 06:03:10;;;;;;;9.68;7.42;;;;;;;14.39;77.76;97130.97;1844730;77;25218;-77
2022/07/27 06:05:37;;;;;;;9.13;7.78;;;;;;;14.47;77.69;97123.84;1844765;77;26011;-78
2022/07/27 06:08:10;;;;;;;10.58;7.20;;;;;;;14.55;77.57;97122.61;1844943;76;25570;-78
2022/07/27 06:10:39;;;;;;;7.65;6.95;;;;;;;14.63;77.46;97123.57;1844535;77;27406;-78
2022/07/27 06:13:08;;;;;;;8.30;7.28;;;;;;;14.70;77.49;97124.26;1844643;77;25855;-78
2022/07/27 06:15:37;;;;;;;10.23;7.62;;;;;;;14.78;77.42;97127.93;1844639;77;25664;-78
2022/07/27 06:18:05;;;;;;;8.38;7.58;;;;;;;14.85;77.38;97125.90;1844772;77;25978;-80
2022/07/27 06:20:32;;;;;;;7.58;6.87;;;;;;;14.93;77.41;97121.94;1844752;76;25724;-77
2022/07/27 06:23:02;;;;;;;12.55;7.33;;;;;;;15.01;77.46;97121.53;1844654;77;27382;-78
2022/07/27 06:25:34;;;;;;;8.83;6.62;;;;;;;15.08;77.54;97123.56;1844718;77;25709;-77
2022/07/27 06:28:01;;;;;;;10.70;7.05;;;;;;;15.16;77.40;97123.15;1844763;77;25734;-78
2022/07/27 06:30:28;;;;;;;10.88;6.80;;;;;;;15.24;77.17;97123.26;1844685;77;26165;-78
2022/07/27 06:32:57;;;;;;;10.03;7.10;;;;;;;15.33;77.17;97123.98;1844799;77;25688;-78
2022/07/27 06:35:24;;;;;;;6.92;6.22;;;;;;;15.41;77.27;97122.73;1844705;77;27485;-79
2022/07/27 06:37:51;;;;;;;6.92;6.20;;;;;;;15.48;77.09;97121.47;1844385;77;25230;-77
2022/07/27 06:40:19;;;;;;;7.53;6.70;;;;;;;15.57;77.01;97126.00;1844656;77;25681;-80
2022/07/27 06:42:46;;;;;;;7.50;6.65;;;;;;;15.68;76.96;97121.53;1844520;77;26037;-77
2022/07/27 06:45:12;;;;;;;12.93;6.83;;;;;;;15.77;76.92;97118.66;1844542;77;25577;-78
2022/07/27 06:47:40;;;;;;;9.23;6.78;;;;;;;15.84;76.98;97113.84;1844791;77;27207;-77
2022/07/27 06:50:08;;;;;;;9.95;6.90;;;;;;;15.95;77.09;97114.27;1860536;76;25664;-77
2022/07/27 06:52:34;;;;;;;7.05;6.33;;;;;;;16.06;77.15;97119.33;1865996;76;25719;-77
2022/07/27 06:55:01;;;;;;;7.83;6.62;;;;;;;16.14;77.03;97119.70;1866050;76;25976;-77
2022/07/27 06:57:28;;;;;;;7.65;6.60;;;;;;;16.23;76.66;97123.33;1866002;76;25644;-80
2022/07/27 06:59:54;;;;;;;12.37;6.60;;;;;;;16.32;76.89;97113.63;1866073;76;27353;-77
2022/07/27 07:02:21;;;;;;;11.18;6.83;;;;;;;16.42;76.69;97121.94;1865850;76;25816;-77
2022/07/27 07:04:47;;;;;;;8.10;6.05;;;;;;;16.50;76.55;97118.75;1865985;76;25683;-78
2022/07/27 07:07:14;;;;;;;8.33;6.37;;;;;;;16.58;76.24;97125.09;1866046;76;26149;-78
2022/07/27 07:09:40;;;;;;;11.28;7.25;;;;;;;16.67;76.33;97116.77;1866049;76;25672;-78
2022/07/27 07:12:07;;;;;;;7.47;6.75;;;;;;;16.80;76.60;97115.53;1866148;76;28180;-79
2022/07/27 07:14:33;;;;;;;8.38;6.92;;;;;;;16.91;76.51;97120.00;1865727;76;25686;-78
2022/07/27 07:17:00;;;;;;;15.32;7.78;;;;;;;17.03;76.47;97115.73;1866109;76;25703;-78
2022/07/27 07:19:27;;;;;;;10.38;7.03;;;;;;;17.15;76.40;97112.30;1865737;76;26133;-78
2022/07/27 07:21:54;;;;;;;11.38;8.08;;;;;;;17.27;76.15;97107.48;1866013;76;25770;-77
2022/07/27 07:24:21;;;;;;;13.32;10.40;;;;;;;17.37;76.33;97103.50;1865549;76;28060;-78
2022/07/27 07:26:48;;;;;;;14.68;11.28;;;;;;;17.47;76.24;97113.11;1865942;76;25782;-77
2022/07/27 07:29:15;;;;;;;20.77;14.83;;;;;;;17.60;76.45;97116.75;1866064;76;25209;-80
2022/07/27 07:31:41;;;;;;;20.45;16.23;;;;;;;17.73;76.73;97123.69;1866015;76;26863;-80
2022/07/27 07:34:08;;;;;;;20.15;14.85;;;;;;;17.89;76.66;97132.77;1866110;76;25851;-78
2022/07/27 07:36:34;;;;;;;16.97;13.50;;;;;;;18.03;76.50;97139.95;1866028;76;27323;-77
2022/07/27 07:39:01;;;;;;;19.32;14.98;;;;;;;18.15;76.15;97130.45;1865563;76;25857;-80
2022/07/27 07:41:28;;;;;;;20.82;15.20;;;;;;;18.30;76.16;97136.00;1866072;76;25714;-78
2022/07/27 07:43:54;;;;;;;20.02;15.15;;;;;;;18.46;75.86;97129.23;1865975;76;26125;-82
2022/07/27 07:46:21;;;;;;;20.80;15.35;;;;;;;18.61;75.59;97129.28;1865777;76;25653;-78
2022/07/27 07:48:48;;;;;;;19.92;17.32;;;;;;;18.85;75.42;97140.01;1864942;76;27358;-78
2022/07/27 07:51:14;;;;;;;23.18;17.90;;;;;;;19.18;74.94;97142.81;1850405;77;25682;-78
2022/07/27 07:53:41;;;;;;;23.87;17.77;;;;;;;19.50;74.90;97137.64;1850768;76;25719;-78
2022/07/27 07:56:08;;;;;;;20.27;15.63;;;;;;;19.89;74.34;97146.91;1850929;77;26028;-80
2022/07/27 07:58:34;;;;;;;18.20;15.05;;;;;;;20.31;73.79;97144.30;1850747;77;25680;-80
2022/07/27 08:01:01;;;;;;;19.98;16.15;;;;;;;20.95;72.54;97119.60;1850807;77;28223;-78
2022/07/27 08:03:27;;;;;;;20.97;16.65;;;;;;;20.95;72.54;97119.60;1850772;77;25719;-80
2022/07/27 08:05:54;;;;;;;21.15;16.45;;;;;;;21.46;72.40;97139.84;1850877;77;26505;-80
2022/07/27 08:08:21;;;;;;;20.48;15.72;;;;;;;21.86;71.74;97135.89;1850783;77;25929;-82
2022/07/27 08:10:47;;;;;;;16.12;13.53;;;;;;;22.22;70.81;97144.60;1850883;76;25713;-79
2022/07/27 08:13:14;;;;;;;20.62;13.62;;;;;;;22.56;70.40;97131.56;1850787;77;27295;-81
2022/07/27 08:15:41;;;;;;;18.37;13.58;;;;;;;23.00;69.89;97137.31;1850560;77;25761;-82
2022/07/27 08:18:08;;;;;;;18.10;13.60;;;;;;;23.44;69.33;97139.65;1850498;77;25688;-79
2022/07/27 08:20:35;;;;;;;22.22;14.85;;;;;;;23.78;68.21;97138.59;1850504;77;26045;-79
2022/07/27 08:23:02;;;;;;;16.75;13.20;;;;;;;24.06;66.89;97132.80;1851004;77;25664;-81
2022/07/27 08:25:29;;;;;;;17.05;13.22;;;;;;;24.31;66.77;97141.73;1850890;76;27485;-81
2022/07/27 08:27:57;;;;;;;17.57;13.53;;;;;;;24.66;65.95;97149.29;1850768;77;25761;-80
2022/07/27 08:30:24;;;;;;;16.93;12.50;;;;;;;24.92;63.83;97132.18;1850813;77;25709;-80
2022/07/27 08:32:54;;;;;;;17.32;12.47;;;;;;;25.12;64.15;97138.08;1850870;77;25984;-82
2022/07/27 08:35:22;;;;;;;16.93;13.48;;;;;;;25.45;62.74;97143.41;1850730;77;25933;-81
2022/07/27 08:37:48;;;;;;;23.10;15.00;;;;;;;25.64;62.95;97146.00;1850786;77;27452;-81
2022/07/27 08:40:16;;;;;;;15.60;13.78;;;;;;;25.78;60.40;97139.28;1850704;77;25687;-81
2022/07/27 08:42:43;;;;;;;16.15;13.75;;;;;;;25.80;60.99;97143.12;1850773;77;25622;-80
2022/07/27 08:45:13;;;;;;;17.17;13.50;;;;;;;25.96;60.34;97147.12;1850853;77;25982;-83
2022/07/27 08:47:41;;;;;;;15.38;13.72;;;;;;;26.31;60.60;97151.48;1850879;77;26392;-82
2022/07/27 08:52:43;;;;;;;16.93;14.13;;;;;;;26.76;57.89;97168.73;1732655;82;25533;-82
2022/07/27 08:55:10;;;;;;;20.27;14.75;;;;;;;26.87;57.70;97162.56;1733039;82;25841;-82
2022/07/27 08:57:36;;;;;;;16.97;14.80;;;;;;;26.85;56.63;97157.91;1729004;82;26553;-80
2022/07/27 09:00:05;;;;;;;17.27;14.73;;;;;;;26.88;56.30;97162.00;1733100;82;25868;-80
2022/07/27 09:02:31;;;;;;;18.50;14.55;;;;;;;26.92;56.31;97151.10;1733034;82;27546;-80
2022/07/27 09:04:58;;;;;;;19.42;16.85;;;;;;;27.12;56.29;97147.73;1732790;82;25808;-81
2022/07/27 09:07:28;;;;;;;16.80;14.35;;;;;;;27.15;53.93;97144.32;1733213;82;25785;-81
2022/07/27 09:09:55;;;;;;;15.63;13.20;;;;;;;27.26;55.18;97140.09;1698704;84;26066;-81
2022/07/27 09:12:27;;;;;;;17.80;13.40;;;;;;;27.58;55.54;97142.39;1698735;84;25538;-82
2022/07/27 09:15:13;;;;;;;16.87;14.38;;;;;;;27.86;55.28;97142.84;1696075;84;28142;-82
2022/07/27 09:17:43;;;;;;;15.95;13.30;;;;;;;28.25;54.03;97144.57;1698660;84;25774;-84
2022/07/27 09:20:15;;;;;;;18.30;13.18;;;;;;;28.45;53.66;97129.70;1698818;84;25809;-84
2022/07/27 09:22:49;;;;;;;15.72;13.05;;;;;;;28.80;53.37;97131.19;1698583;84;26065;-80
2022/07/27 09:25:18;;;;;;;14.23;12.73;;;;;;;29.09;52.71;97125.37;1698737;84;25319;-81
2022/07/27 09:27:47;;;;;;;13.30;11.38;;;;;;;29.41;52.47;97127.42;1698679;84;27703;-83
2022/07/27 09:30:17;;;;;;;16.60;13.18;;;;;;;29.43;51.17;97127.09;1731821;81;25245;-83
2022/07/27 09:33:03;;;;;;;17.77;14.60;;;;;;;29.62;51.15;97124.61;1767127;81;25454;-80
2022/07/27 09:35:33;;;;;;;16.75;12.40;;;;;;;29.92;50.75;97122.53;1766909;81;26789;-83
2022/07/27 09:38:23;;;;;;;15.68;11.55;;;;;;;30.20;49.90;97117.16;1766969;81;25700;-82
2022/07/27 09:41:05;;;;;;;13.10;10.48;;;;;;;30.32;49.34;97111.03;1767001;81;27993;-82
2022/07/27 09:43:47;;;;;;;;;;;;;;;30.58;48.55;97111.30;1769497;81;25952;-81
2022/07/27 09:46:14;;;;;;;8.45;7.65;;;;;;;30.61;45.40;97105.05;1763145;81;25735;-84
2022/07/27 09:48:40;;;;;;;10.60;8.05;;;;;;;30.46;47.33;97109.30;1767135;81;26041;-81
2022/07/27 09:51:11;;;;;;;10.68;9.58;;;;;;;30.52;46.02;97097.36;1751575;81;26525;-81
2022/07/27 09:53:38;;;;;;;10.32;8.73;;;;;;;30.38;46.83;97101.88;1747954;82;28381;-82
2022/07/27 09:56:09;;;;;;;10.70;9.50;;;;;;;30.40;46.64;97094.00;1747921;82;25936;-83
2022/07/27 09:58:52;;;;;;;;;;;;;;;30.51;46.69;97095.73;1750561;82;25824;-80
2022/07/27 10:01:29;;;;;;;11.53;9.35;;;;;;;30.73;44.97;97102.25;1647692;87;26185;-82
2022/07/27 10:04:00;;;;;;;9.88;7.25;;;;;;;30.86;45.75;97101.66;1598030;88;25335;-81
2022/07/27 10:06:29;;;;;;;7.37;6.37;;;;;;;30.92;45.54;97104.43;1596964;88;28247;-81
2022/07/27 10:08:57;;;;;;;9.38;8.48;;;;;;;30.71;44.43;97097.61;1594603;88;25894;-81
2022/07/27 10:11:25;;;;;;;10.65;8.93;;;;;;;30.62;45.10;97094.14;1594738;88;25792;-83
2022/07/27 10:13:54;;;;;;;8.15;6.55;;;;;;;30.70;45.05;97091.80;1594660;88;26827;-81
2022/07/27 10:16:26;;;;;;;5.90;5.05;;;;;;;30.70;44.82;97090.41;1594611;88;26569;-81
2022/07/27 10:19:15;;;;;;;6.70;4.58;;;;;;;30.78;44.08;97097.85;1594680;88;27407;-80
2022/07/27 10:21:45;;;;;;;7.35;5.00;;;;;;;30.89;43.58;97097.61;1585810;89;25867;-80
2022/07/27 10:24:30;;;;;;;10.20;5.35;;;;;;;30.93;43.34;97090.73;1560075;90;25847;-81
2022/07/27 10:26:57;;;;;;;6.40;5.65;;;;;;;30.85;43.13;97100.85;1585006;88;26015;-85
2022/07/27 10:29:24;;;;;;;9.03;5.58;;;;;;;30.87;43.50;97093.54;1567635;91;25853;-82
2022/07/27 10:31:58;;;;;;;7.10;5.40;;;;;;;30.98;42.46;97095.49;1567706;91;27491;-82
2022/07/27 10:34:39;;;;;;;9.75;6.83;;;;;;;30.93;42.29;97095.72;1542246;92;26142;-82
2022/07/27 10:37:13;;;;;;;10.98;6.37;;;;;;;31.09;42.05;97093.88;1520245;94;25951;-80
2022/07/27 10:39:50;;;;;;;7.30;5.97;;;;;;;31.30;42.27;97099.27;1495239;94;26010;-81
2022/07/27 10:42:29;;;;;;;10.32;6.17;;;;;;;31.33;41.37;97089.39;1495241;94;25866;-80
2022/07/27 10:45:09;;;;;;;7.35;6.17;;;;;;;31.35;41.20;97095.43;1471851;97;27567;-84
2022/07/27 10:47:43;;;;;;;8.13;6.05;;;;;;;31.41;40.76;97096.79;1409541;100;25879;-81
2022/07/27 10:50:23;;;;;;;7.03;5.12;;;;;;;31.44;40.25;97098.30;1402234;100;25871;-81
2022/07/27 10:52:55;;;;;;;8.88;7.45;;;;;;;31.22;40.50;97092.45;1353413;105;26125;-83
2022/07/27 10:55:36;;;;;;;10.35;6.70;;;;;;;31.29;40.78;97090.67;1338793;106;25415;-80
2022/07/27 10:58:14;;;;;;;8.90;7.00;;;;;;;31.30;40.16;97097.06;1395598;101;27407;-83
2022/07/27 11:00:55;;;;;;;8.28;7.00;;;;;;;31.30;40.21;97095.08;1411303;98;25903;-81
2022/07/27 11:03:32;;;;;;;8.20;6.70;;;;;;;31.31;40.07;97094.50;1433403;98;25920;-81
2022/07/27 11:06:10;;;;;;;8.65;6.15;;;;;;;31.38;40.40;97097.52;1433500;98;26015;-81
2022/07/27 11:08:42;;;;;;;8.90;5.85;;;;;;;31.34;39.22;97097.98;1433639;98;26032;-80
2022/07/27 11:11:22;;;;;;;9.30;6.55;;;;;;;31.02;39.34;97095.03;1412416;101;27473;-82
2022/07/27 11:13:56;;;;;;;12.70;7.58;;;;;;;30.76;39.80;97090.42;1412309;101;25997;-82
2022/07/27 11:16:23;;;;;;;10.30;7.10;;;;;;;30.62;39.92;97089.96;1415188;100;26127;-81
2022/07/27 11:19:00;;;;;;;9.15;7.47;;;;;;;30.45;39.86;97090.39;1430874;100;26180;-81
2022/07/27 11:21:38;;;;;;;8.60;7.67;;;;;;;30.27;40.08;97088.19;1349264;106;25875;-80
2022/07/27 11:24:18;;;;;;;10.05;7.70;;;;;;;29.99;40.39;97083.27;1359749;103;26046;-82
2022/07/27 11:26:50;;;;;;;8.58;7.70;;;;;;;29.67;40.54;97073.77;1372421;104;25910;-82
2022/07/27 11:29:21;;;;;;;8.38;7.28;;;;;;;29.46;40.66;97076.38;1356764;105;25933;-80
2022/07/27 11:31:53;;;;;;;8.88;7.75;;;;;;;29.38;40.83;97072.50;1356857;105;26072;-81
2022/07/27 11:34:30;;;;;;;;;;;;;;;29.41;40.98;97069.05;1370172;104;25934;-80
2022/07/27 11:37:01;;;;;;;11.20;8.23;;;;;;;29.39;41.47;97067.17;1376580;104;28373;-81
2022/07/27 11:39:30;;;;;;;8.78;7.87;;;;;;;29.27;41.30;97067.91;1376273;104;25963;-82
2022/07/27 11:42:00;;;;;;;8.78;7.47;;;;;;;29.15;41.57;97059.51;1377206;103;26004;-85